createdAt,value
2023-05-10T00:01:34.345Z,9.62
2023-05-10T00:04:01.192Z,9.58
2023-05-10T00:06:29.030Z,9.57
2023-05-10T00:08:55.880Z,9.58
2023-05-10T00:11:23.251Z,9.47
2023-05-10T00:13:50.207Z,9.43
2023-05-10T00:16:17.034Z,9.35
2023-05-10T00:18:43.940Z,9.24
2023-05-10T00:21:10.732Z,9.14
2023-05-10T00:23:37.627Z,9.10
2023-05-10T00:26:04.425Z,9.06
2023-05-10T00:28:31.363Z,9.23
2023-05-10T00:30:58.214Z,9.27
2023-05-10T00:33:25.069Z,9.38
2023-05-10T00:35:51.923Z,9.39
2023-05-10T00:38:18.651Z,9.41
2023-05-10T00:40:45.470Z,9.55
2023-05-10T00:43:20.169Z,9.64
2023-05-10T00:45:48.314Z,9.76
2023-05-10T00:48:15.395Z,9.85
2023-05-10T00:50:42.352Z,9.94
2023-05-10T00:53:09.950Z,9.97
2023-05-10T00:55:37.320Z,10.04
2023-05-10T00:58:04.518Z,10.11
2023-05-10T01:00:31.485Z,10.15
2023-05-10T01:02:59.171Z,10.22
2023-05-10T01:05:26.132Z,10.24
2023-05-10T01:07:52.892Z,10.29
2023-05-10T01:10:19.770Z,10.35
2023-05-10T01:12:48.225Z,10.33
2023-05-10T01:15:17.330Z,10.42
2023-05-10T01:17:47.085Z,10.45
2023-05-10T01:20:15.403Z,10.44
2023-05-10T01:22:57.674Z,10.45
2023-05-10T01:26:01.490Z,10.40
2023-05-10T01:29:05.220Z,10.41
2023-05-10T01:31:58.248Z,10.39
2023-05-10T01:34:28.502Z,10.38
2023-05-10T01:37:05.313Z,10.38
2023-05-10T01:39:45.598Z,10.38
2023-05-10T01:42:18.693Z,10.34
2023-05-10T01:45:04.143Z,10.33
2023-05-10T01:47:42.943Z,10.29
2023-05-10T01:50:23.532Z,10.26
2023-05-10T01:52:56.134Z,10.25
2023-05-10T01:55:27.162Z,10.16
2023-05-10T01:58:01.348Z,10.23
2023-05-10T02:00:29.903Z,10.22
2023-05-10T02:02:57.408Z,10.19
2023-05-10T02:05:25.415Z,10.19
2023-05-10T02:07:54.134Z,10.16
2023-05-10T02:10:21.747Z,10.22
2023-05-10T02:12:51.104Z,10.20
2023-05-10T02:15:25.748Z,10.23
2023-05-10T02:17:55.535Z,10.23
2023-05-10T02:20:24.405Z,10.22
2023-05-10T02:22:53.642Z,10.25
2023-05-10T02:25:22.523Z,10.24
2023-05-10T02:27:50.093Z,10.31
2023-05-10T02:30:19.085Z,10.36
2023-05-10T02:32:46.741Z,10.31
2023-05-10T02:35:14.270Z,10.33
2023-05-10T02:37:42.963Z,10.22
2023-05-10T02:40:11.116Z,10.21
2023-05-10T02:42:39.927Z,10.25
2023-05-10T02:45:12.701Z,10.26
2023-05-10T02:47:40.060Z,10.23
2023-05-10T02:50:08.245Z,10.25
2023-05-10T02:52:50.820Z,10.16
2023-05-10T02:55:22.561Z,10.20
2023-05-10T02:57:55.002Z,10.16
2023-05-10T03:00:21.901Z,10.10
2023-05-10T03:02:48.769Z,10.09
2023-05-10T03:05:15.620Z,10.06
2023-05-10T03:07:42.591Z,10.02
2023-05-10T03:10:10.567Z,10.05
2023-05-10T03:12:52.487Z,10.02
2023-05-10T03:15:30.154Z,10.00
2023-05-10T03:18:05.784Z,9.97
2023-05-10T03:20:38.389Z,9.94
2023-05-10T03:23:27.300Z,9.89
2023-05-10T03:25:54.501Z,9.84
2023-05-10T03:28:22.729Z,9.75
2023-05-10T03:30:50.977Z,9.79
2023-05-10T03:33:17.871Z,9.78
2023-05-10T03:35:46.983Z,9.72
2023-05-10T03:38:14.770Z,9.79
2023-05-10T03:40:41.720Z,9.75
2023-05-10T03:43:09.106Z,9.83
2023-05-10T03:45:36.666Z,9.75
2023-05-10T03:48:03.828Z,9.84
2023-05-10T03:50:30.727Z,9.83
2023-05-10T03:52:58.325Z,9.96
2023-05-10T03:55:25.362Z,9.96
2023-05-10T03:57:52.270Z,10.11
2023-05-10T04:00:19.286Z,10.18
2023-05-10T04:02:49.994Z,10.19
2023-05-10T04:05:19.462Z,10.20
2023-05-10T04:07:46.224Z,10.30
2023-05-10T04:10:13.070Z,10.32
2023-05-10T04:12:39.710Z,10.40
2023-05-10T04:15:07.813Z,10.40
2023-05-10T04:17:34.773Z,10.44
2023-05-10T04:20:01.545Z,10.49
2023-05-10T04:22:30.056Z,10.57
2023-05-10T04:24:56.762Z,10.64
2023-05-10T04:27:23.513Z,10.70
2023-05-10T04:29:50.213Z,10.74
2023-05-10T04:32:18.224Z,10.79
2023-05-10T04:34:45.021Z,10.85
2023-05-10T04:37:11.770Z,10.94
2023-05-10T04:39:40.242Z,10.89
2023-05-10T04:42:08.352Z,10.97
2023-05-10T04:44:35.353Z,11.03
2023-05-10T04:47:03.291Z,11.07
2023-05-10T04:49:30.741Z,11.09
2023-05-10T04:51:57.434Z,11.14
2023-05-10T04:54:24.299Z,11.26
2023-05-10T04:56:51.087Z,11.26
2023-05-10T04:59:18.248Z,11.26
2023-05-10T05:01:45.080Z,11.37
2023-05-10T05:04:12.087Z,11.32
2023-05-10T05:06:38.923Z,11.41
2023-05-10T05:09:05.619Z,11.45
2023-05-10T05:11:32.368Z,11.52
2023-05-10T05:14:00.327Z,11.43
2023-05-10T05:16:27.506Z,11.52
2023-05-10T05:18:54.468Z,11.52
2023-05-10T05:21:21.475Z,11.55
2023-05-10T05:23:48.187Z,11.62
2023-05-10T05:26:16.117Z,11.59
2023-05-10T05:28:43.222Z,11.73
2023-05-10T05:31:10.329Z,11.77
2023-05-10T05:33:37.793Z,11.85
2023-05-10T05:36:06.412Z,11.84
2023-05-10T05:38:33.246Z,11.86
2023-05-10T05:41:00.037Z,11.90
2023-05-10T05:43:26.862Z,11.93
2023-05-10T05:45:54.990Z,12.05
2023-05-10T05:48:22.123Z,12.14
2023-05-10T05:50:48.906Z,12.22
2023-05-10T05:53:15.805Z,12.16
2023-05-10T05:55:55.797Z,12.29
2023-05-10T05:58:23.512Z,12.40
2023-05-10T06:00:50.609Z,12.47
2023-05-10T06:03:17.527Z,12.40
2023-05-10T06:05:44.523Z,12.40
2023-05-10T06:08:11.580Z,12.47
2023-05-10T06:10:38.725Z,12.57
2023-05-10T06:13:05.756Z,12.56
2023-05-10T06:15:33.630Z,12.65
2023-05-10T06:18:00.584Z,12.70
2023-05-10T06:20:27.561Z,12.68
2023-05-10T06:22:54.438Z,12.84
2023-05-10T06:25:21.267Z,12.88
2023-05-10T06:27:51.724Z,12.93
2023-05-10T06:30:20.430Z,13.03
2023-05-10T06:32:47.252Z,13.09
2023-05-10T06:35:14.244Z,13.08
2023-05-10T06:37:40.994Z,13.20
2023-05-10T06:40:08.673Z,13.43
2023-05-10T06:42:35.375Z,13.33
2023-05-10T06:45:03.949Z,13.38
2023-05-10T06:47:30.775Z,13.49
2023-05-10T06:49:57.869Z,13.59
2023-05-10T06:52:24.731Z,13.59
2023-05-10T06:54:51.487Z,13.73
2023-05-10T06:57:30.561Z,13.85
2023-05-10T07:00:01.792Z,13.89
2023-05-10T07:02:29.075Z,13.96
2023-05-10T07:04:55.935Z,14.00
2023-05-10T07:07:22.814Z,14.07
2023-05-10T07:09:50.919Z,14.13
2023-05-10T07:12:17.791Z,14.16
2023-05-10T07:14:44.639Z,14.26
2023-05-10T07:17:11.699Z,14.28
2023-05-10T07:19:46.170Z,14.32
2023-05-10T07:22:14.028Z,14.45
2023-05-10T07:24:41.517Z,14.51
2023-05-10T07:27:08.308Z,14.60
2023-05-10T07:29:35.127Z,14.69
2023-05-10T07:32:02.298Z,14.78
2023-05-10T07:34:31.204Z,14.74
2023-05-10T07:36:59.848Z,14.77
2023-05-10T07:39:28.370Z,14.81
2023-05-10T07:41:56.183Z,14.77
2023-05-10T07:44:23.334Z,14.77
2023-05-10T07:46:50.395Z,14.82
2023-05-10T07:49:17.263Z,14.98
2023-05-10T07:51:44.410Z,15.01
2023-05-10T07:54:11.392Z,14.94
2023-05-10T07:56:38.265Z,15.08
2023-05-10T07:59:07.377Z,15.14
2023-05-10T08:01:35.661Z,15.11
2023-05-10T08:04:03.319Z,15.20
2023-05-10T08:06:31.349Z,15.25
2023-05-10T08:08:58.281Z,15.25
2023-05-10T08:11:25.305Z,15.18
2023-05-10T08:13:52.768Z,15.31
2023-05-10T08:16:20.415Z,15.52
2023-05-10T08:18:48.409Z,15.47
2023-05-10T08:21:16.021Z,15.47
2023-05-10T08:23:44.717Z,15.58
2023-05-10T08:26:11.909Z,15.58
2023-05-10T08:28:39.005Z,15.72
2023-05-10T08:31:06.606Z,15.79
2023-05-10T08:33:33.895Z,15.69
2023-05-10T08:36:00.683Z,15.81
2023-05-10T08:38:27.578Z,15.87
2023-05-10T08:40:59.744Z,15.95
2023-05-10T08:43:30.875Z,16.03
2023-05-10T08:46:02.169Z,16.11
2023-05-10T08:48:31.136Z,16.04
2023-05-10T08:51:00.951Z,15.87
2023-05-10T08:53:28.330Z,15.79
2023-05-10T08:55:56.738Z,15.83
2023-05-10T08:58:23.790Z,16.00
2023-05-10T09:00:53.912Z,16.13
2023-05-10T09:03:21.077Z,16.38
2023-05-10T09:05:48.702Z,16.46
2023-05-10T09:08:17.326Z,16.50
2023-05-10T09:10:45.439Z,16.57
2023-05-10T09:13:15.069Z,16.61
2023-05-10T09:15:42.209Z,16.38
2023-05-10T09:18:08.937Z,16.44
2023-05-10T09:20:35.844Z,16.47
2023-05-10T09:23:02.553Z,16.46
2023-05-10T09:25:29.449Z,16.57
2023-05-10T09:27:56.502Z,16.43
2023-05-10T09:30:31.638Z,16.66
2023-05-10T09:33:00.131Z,16.70
2023-05-10T09:35:31.579Z,16.57
2023-05-10T09:38:02.222Z,16.53
2023-05-10T09:40:31.131Z,16.64
2023-05-10T09:42:59.723Z,16.62
2023-05-10T09:45:31.665Z,16.68
2023-05-10T09:48:00.137Z,16.84
2023-05-10T09:50:27.851Z,16.87
2023-05-10T09:53:00.227Z,17.06
2023-05-10T09:55:45.921Z,17.12
2023-05-10T09:58:14.643Z,16.96
2023-05-10T10:00:45.780Z,16.92
2023-05-10T10:03:15.706Z,17.05
2023-05-10T10:05:43.782Z,17.10
2023-05-10T10:08:11.230Z,17.10
2023-05-10T10:10:38.081Z,17.18
2023-05-10T10:13:05.880Z,17.29
2023-05-10T10:15:34.326Z,17.37
2023-05-10T10:18:01.598Z,17.21
2023-05-10T10:20:30.117Z,17.35
2023-05-10T10:22:56.893Z,17.31
2023-05-10T10:25:24.186Z,17.20
2023-05-10T10:27:53.887Z,17.26
2023-05-10T10:30:39.028Z,17.30
2023-05-10T10:33:30.733Z,17.30
2023-05-10T10:36:01.065Z,17.50
2023-05-10T10:38:48.844Z,17.59
2023-05-10T10:41:33.830Z,17.67
2023-05-10T10:44:34.668Z,17.72
2023-05-10T10:47:10.315Z,17.72
2023-05-10T10:49:49.421Z,17.76
2023-05-10T10:52:22.825Z,17.81
2023-05-10T10:55:10.121Z,17.94
2023-05-10T10:58:05.493Z,17.92
2023-05-10T11:00:34.228Z,18.03
2023-05-10T11:03:17.954Z,18.13
2023-05-10T11:05:49.065Z,18.23
2023-05-10T11:08:30.713Z,18.20
2023-05-10T11:11:00.640Z,18.02
2023-05-10T11:13:42.587Z,18.03
2023-05-10T11:16:13.955Z,17.92
2023-05-10T11:18:41.699Z,17.86
2023-05-10T11:21:11.707Z,17.60
2023-05-10T11:23:44.568Z,17.53
2023-05-10T11:26:12.576Z,17.53
2023-05-10T11:28:46.432Z,17.54
2023-05-10T11:31:20.911Z,17.50
2023-05-10T11:33:54.033Z,17.63
2023-05-10T11:36:28.461Z,17.60
2023-05-10T11:38:57.476Z,17.69
2023-05-10T11:41:25.720Z,17.77
2023-05-10T11:43:54.973Z,17.96
2023-05-10T11:46:24.531Z,18.08
2023-05-10T11:48:53.269Z,18.23
2023-05-10T11:51:25.408Z,18.47
2023-05-10T11:53:55.802Z,18.69
2023-05-10T11:56:23.072Z,18.87
2023-05-10T11:58:58.149Z,19.07
2023-05-10T12:01:28.863Z,19.08
2023-05-10T12:04:00.018Z,19.23
2023-05-10T12:06:33.553Z,19.19
2023-05-10T12:09:00.674Z,19.09
2023-05-10T12:11:29.560Z,19.00
2023-05-10T12:13:57.551Z,19.06
2023-05-10T12:16:30.565Z,19.03
2023-05-10T12:18:59.620Z,18.98
2023-05-10T12:21:27.211Z,19.08
2023-05-10T12:23:56.596Z,19.10
2023-05-10T12:26:24.285Z,19.16
2023-05-10T12:28:51.083Z,19.00
2023-05-10T12:31:17.869Z,19.17
2023-05-10T12:33:46.314Z,19.29
2023-05-10T12:36:14.887Z,19.43
2023-05-10T12:38:44.358Z,19.76
2023-05-10T12:41:13.067Z,20.14
2023-05-10T12:43:40.556Z,20.04
2023-05-10T12:46:12.253Z,19.83
2023-05-10T12:48:40.385Z,20.04
2023-05-10T12:51:10.340Z,20.19
2023-05-10T12:53:37.781Z,19.86
2023-05-10T12:56:04.754Z,19.69
2023-05-10T12:58:36.035Z,19.60
2023-05-10T13:01:03.674Z,19.53
2023-05-10T13:03:30.675Z,19.54
2023-05-10T13:05:57.635Z,19.51
2023-05-10T13:08:24.532Z,19.51
2023-05-10T13:10:51.298Z,19.51
2023-05-10T13:13:19.288Z,19.50
2023-05-10T13:15:46.051Z,19.49
2023-05-10T13:18:12.954Z,19.38
2023-05-10T13:20:39.664Z,19.50
2023-05-10T13:23:06.503Z,19.41
2023-05-10T13:25:33.386Z,19.28
2023-05-10T13:28:00.210Z,19.22
2023-05-10T13:30:27.086Z,19.14
2023-05-10T13:32:53.880Z,19.00
2023-05-10T13:35:20.744Z,18.93
2023-05-10T13:37:47.692Z,18.87
2023-05-10T13:40:16.531Z,18.95
2023-05-10T13:42:43.588Z,18.93
2023-05-10T13:45:13.245Z,18.95
2023-05-10T13:47:40.352Z,18.78
2023-05-10T13:50:07.877Z,18.62
2023-05-10T13:52:34.725Z,18.51
2023-05-10T13:55:01.724Z,18.53
2023-05-10T13:57:29.847Z,18.53
2023-05-10T13:59:58.328Z,18.68
2023-05-10T14:02:25.784Z,18.69
2023-05-10T14:04:52.728Z,18.83
2023-05-10T14:07:19.484Z,18.94
2023-05-10T14:09:46.545Z,18.99
2023-05-10T14:12:13.306Z,19.05
2023-05-10T14:14:40.291Z,19.10
2023-05-10T14:17:07.026Z,19.02
2023-05-10T14:19:35.064Z,19.12
2023-05-10T14:22:01.780Z,19.13
2023-05-10T14:24:28.594Z,19.18
2023-05-10T14:26:55.370Z,19.02
2023-05-10T14:29:23.087Z,18.91
2023-05-10T14:31:49.880Z,18.97
2023-05-10T14:34:16.661Z,18.90
2023-05-10T14:36:43.353Z,18.88
2023-05-10T14:39:11.288Z,18.87
2023-05-10T14:41:38.731Z,18.99
2023-05-10T14:44:05.939Z,18.95
2023-05-10T14:46:32.719Z,18.89
2023-05-10T14:48:59.566Z,18.96
2023-05-10T14:51:26.341Z,18.86
2023-05-10T14:53:53.007Z,18.88
2023-05-10T14:56:19.746Z,18.90
2023-05-10T14:58:46.516Z,18.89
2023-05-10T15:01:13.441Z,18.87
2023-05-10T15:03:40.846Z,18.87
2023-05-10T15:06:09.518Z,18.76
2023-05-10T15:08:36.275Z,18.84
2023-05-10T15:11:03.704Z,18.82
2023-05-10T15:13:30.680Z,18.83
2023-05-10T15:15:57.580Z,18.84
2023-05-10T15:18:27.040Z,18.77
2023-05-10T15:20:53.787Z,18.84
2023-05-10T15:23:20.481Z,18.82
2023-05-10T15:25:47.250Z,18.81
2023-05-10T15:28:14.369Z,18.78
2023-05-10T15:30:41.469Z,18.66
2023-05-10T15:33:09.708Z,18.72
2023-05-10T15:35:39.198Z,18.75
2023-05-10T15:38:06.831Z,18.68
2023-05-10T15:40:34.002Z,18.74
2023-05-10T15:43:00.741Z,18.65
2023-05-10T15:45:27.602Z,18.56
2023-05-10T15:47:54.339Z,18.68
2023-05-10T15:50:21.270Z,18.72
2023-05-10T15:52:48.030Z,18.77
2023-05-10T15:55:15.462Z,18.69
2023-05-10T15:57:43.748Z,18.67
2023-05-10T16:00:12.720Z,18.66
2023-05-10T16:02:40.831Z,18.68
2023-05-10T16:05:08.538Z,18.72
2023-05-10T16:07:35.777Z,18.67
2023-05-10T16:10:09.169Z,18.74
2023-05-10T16:12:36.260Z,18.71
2023-05-10T16:15:03.051Z,18.75
2023-05-10T16:17:29.983Z,18.74
2023-05-10T16:19:56.717Z,18.70
2023-05-10T16:22:27.213Z,18.59
2023-05-10T16:24:54.023Z,18.65
2023-05-10T16:27:20.811Z,18.64
2023-05-10T16:29:48.071Z,18.57
2023-05-10T16:32:14.852Z,18.50
2023-05-10T16:34:41.734Z,18.43
2023-05-10T16:37:08.578Z,18.38
2023-05-10T16:39:35.340Z,18.29
2023-05-10T16:42:02.152Z,18.32
2023-05-10T16:44:28.997Z,18.18
2023-05-10T16:46:56.102Z,18.14
2023-05-10T16:49:24.437Z,18.01
2023-05-10T16:51:52.717Z,18.04
2023-05-10T16:54:20.372Z,18.01
2023-05-10T16:56:47.092Z,18.05
2023-05-10T16:59:13.881Z,18.08
2023-05-10T17:01:41.791Z,17.93
2023-05-10T17:04:08.701Z,17.85
2023-05-10T17:06:36.809Z,17.83
2023-05-10T17:09:04.090Z,17.72
2023-05-10T17:11:31.234Z,17.66
2023-05-10T17:13:59.586Z,17.57
2023-05-10T17:16:27.019Z,17.50
2023-05-10T17:18:53.847Z,17.48
2023-05-10T17:21:21.205Z,17.38
2023-05-10T17:23:47.920Z,17.32
2023-05-10T17:26:14.697Z,17.25
2023-05-10T17:28:41.502Z,17.12
2023-05-10T17:31:08.731Z,17.05
2023-05-10T17:33:35.482Z,16.98
2023-05-10T17:36:02.437Z,16.94
2023-05-10T17:38:29.125Z,16.91
2023-05-10T17:40:55.848Z,16.89
2023-05-10T17:43:23.463Z,16.66
2023-05-10T17:45:50.308Z,16.85
2023-05-10T17:48:17.368Z,16.63
2023-05-10T17:50:44.410Z,16.70
2023-05-10T17:53:11.182Z,16.68
2023-05-10T17:55:42.316Z,16.64
2023-05-10T17:58:11.328Z,16.60
2023-05-10T18:00:38.797Z,16.53
2023-05-10T18:03:06.144Z,16.47
2023-05-10T18:05:37.232Z,16.46
2023-05-10T18:08:05.316Z,16.35
2023-05-10T18:10:32.444Z,16.30
2023-05-10T18:12:59.297Z,16.25
2023-05-10T18:15:26.935Z,16.22
2023-05-10T18:17:53.839Z,16.14
2023-05-10T18:20:20.675Z,16.12
2023-05-10T18:22:47.536Z,16.07
2023-05-10T18:25:14.373Z,16.04
2023-05-10T18:27:41.332Z,15.95
2023-05-10T18:30:10.146Z,15.95
2023-05-10T18:32:38.458Z,15.83
2023-05-10T18:35:06.912Z,15.78
2023-05-10T18:37:34.280Z,15.77
2023-05-10T18:40:01.025Z,15.76
2023-05-10T18:42:28.117Z,15.66
2023-05-10T18:44:55.819Z,15.65
2023-05-10T18:47:22.751Z,15.59
2023-05-10T18:49:49.564Z,15.53
2023-05-10T18:52:16.355Z,15.52
2023-05-10T18:54:43.057Z,15.46
2023-05-10T18:57:10.127Z,15.44
2023-05-10T18:59:37.030Z,15.42
2023-05-10T19:02:04.803Z,15.36
2023-05-10T19:04:31.661Z,15.33
2023-05-10T19:06:58.374Z,15.33
2023-05-10T19:09:26.652Z,15.32
2023-05-10T19:11:53.556Z,15.28
2023-05-10T19:14:20.740Z,15.28
2023-05-10T19:16:53.219Z,15.28
2023-05-10T19:19:20.633Z,15.29
2023-05-10T19:21:48.211Z,15.29
2023-05-10T19:24:15.006Z,15.31
2023-05-10T19:26:41.810Z,15.24
2023-05-10T19:29:09.549Z,15.27
2023-05-10T19:31:36.343Z,15.20
2023-05-10T19:34:04.135Z,15.27
2023-05-10T19:36:31.526Z,15.29
2023-05-10T19:38:58.292Z,15.26
2023-05-10T19:41:25.078Z,15.32
2023-05-10T19:43:53.039Z,15.30
2023-05-10T19:46:20.460Z,15.26
2023-05-10T19:48:47.379Z,15.28
2023-05-10T19:51:14.088Z,15.26
2023-05-10T19:53:44.893Z,15.27
2023-05-10T19:56:12.896Z,15.25
2023-05-10T19:58:40.206Z,15.31
2023-05-10T20:01:07.975Z,15.27
2023-05-10T20:03:35.702Z,15.23
2023-05-10T20:06:04.043Z,15.20
2023-05-10T20:08:31.074Z,15.16
2023-05-10T20:10:59.207Z,15.12
2023-05-10T20:13:26.239Z,15.10
2023-05-10T20:15:59.881Z,15.00
2023-05-10T20:18:27.184Z,14.89
2023-05-10T20:20:55.108Z,14.96
2023-05-10T20:23:22.513Z,14.91
2023-05-10T20:25:49.913Z,14.85
2023-05-10T20:28:25.222Z,14.80
2023-05-10T20:30:54.288Z,14.80
2023-05-10T20:33:25.480Z,14.76
2023-05-10T20:35:52.519Z,14.74
2023-05-10T20:38:19.311Z,14.71
2023-05-10T20:40:47.374Z,14.68
2023-05-10T20:43:14.116Z,14.70
2023-05-10T20:45:40.972Z,14.69
2023-05-10T20:48:08.017Z,14.65
2023-05-10T20:50:34.801Z,14.63
2023-05-10T20:53:01.532Z,14.62
2023-05-10T20:55:28.690Z,14.59
2023-05-10T20:57:55.670Z,14.56
2023-05-10T21:00:22.395Z,14.60
2023-05-10T21:02:49.579Z,14.60
2023-05-10T21:05:18.367Z,14.53
2023-05-10T21:07:45.065Z,14.53
2023-05-10T21:10:12.363Z,14.55
2023-05-10T21:12:39.259Z,14.57
2023-05-10T21:15:06.576Z,14.54
2023-05-10T21:17:33.852Z,14.54
2023-05-10T21:20:00.862Z,14.54
2023-05-10T21:22:27.689Z,14.52
2023-05-10T21:24:54.415Z,14.55
2023-05-10T21:27:21.505Z,14.55
2023-05-10T21:29:48.347Z,14.51
2023-05-10T21:32:15.121Z,14.42
2023-05-10T21:34:42.083Z,14.46
2023-05-10T21:37:09.023Z,14.44
2023-05-10T21:39:36.050Z,14.38
2023-05-10T21:42:03.759Z,14.34
2023-05-10T21:44:31.797Z,14.32
2023-05-10T21:46:58.617Z,14.30
2023-05-10T21:49:25.320Z,14.26
2023-05-10T21:51:52.131Z,14.24
2023-05-10T21:54:18.896Z,14.27
2023-05-10T21:56:45.684Z,14.26
2023-05-10T21:59:12.456Z,14.30
2023-05-10T22:01:39.336Z,14.32
2023-05-10T22:04:06.101Z,14.28
2023-05-10T22:06:32.845Z,14.21
2023-05-10T22:08:59.655Z,14.17
2023-05-10T22:11:26.844Z,14.14
2023-05-10T22:13:53.606Z,14.26
2023-05-10T22:16:20.620Z,14.22
2023-05-10T22:18:47.515Z,14.17
2023-05-10T22:21:14.287Z,14.15
2023-05-10T22:23:41.153Z,14.03
2023-05-10T22:26:07.945Z,14.13
2023-05-10T22:28:34.703Z,14.08
2023-05-10T22:31:01.556Z,14.07
2023-05-10T22:33:28.246Z,14.04
2023-05-10T22:35:55.167Z,13.97
2023-05-10T22:38:22.423Z,13.93
2023-05-10T22:40:49.245Z,13.97
2023-05-10T22:43:16.978Z,13.98
2023-05-10T22:45:44.033Z,13.90
2023-05-10T22:48:10.811Z,13.84
2023-05-10T22:50:37.639Z,13.85
2023-05-10T22:53:04.373Z,13.84
2023-05-10T22:55:31.237Z,13.84
2023-05-10T22:57:58.201Z,13.76
2023-05-10T23:00:25.002Z,13.80
2023-05-10T23:02:51.967Z,13.75
2023-05-10T23:05:19.173Z,13.73
2023-05-10T23:07:48.448Z,13.71
2023-05-10T23:10:15.381Z,13.69
2023-05-10T23:12:42.291Z,13.62
2023-05-10T23:15:09.693Z,13.60
2023-05-10T23:17:36.550Z,13.60
2023-05-10T23:20:03.679Z,13.60
2023-05-10T23:22:30.434Z,13.60
2023-05-10T23:24:57.422Z,13.58
2023-05-10T23:27:24.200Z,13.55
2023-05-10T23:29:55.500Z,13.49
2023-05-10T23:32:22.965Z,13.46
2023-05-10T23:34:49.804Z,13.48
2023-05-10T23:37:17.024Z,13.46
2023-05-10T23:39:43.704Z,13.45
2023-05-10T23:42:10.499Z,13.50
2023-05-10T23:44:37.149Z,13.49
2023-05-10T23:47:03.946Z,13.45
2023-05-10T23:49:30.915Z,13.47
2023-05-10T23:51:57.694Z,13.47
2023-05-10T23:54:24.353Z,13.50
2023-05-10T23:56:51.720Z,13.54
2023-05-10T23:59:18.458Z,13.50
